Terminal Aerodrome Forecast
Issued by NWS

Home | Current Version | Previous Version | Text Only | Print | Product List | Glossary On
Versions: 1 2 3 4 5 6 7 8 9 10 11 12 13 14 15 16 17 18 19 20 21 22
000
FTUS43 KBIS 311133
TAFJMS
TAF
KJMS 311133Z 3112/0112 26008KT P6SM SCT015 BKN035
      TEMPO 3112/3113 BKN015 OVC025
     FM311300 26015G23KT P6SM SCT025 SCT090
     FM311600 23017G25KT P6SM BKN040
     FM312100 25017G25KT P6SM VCSH OVC035
     FM010200 26017G26KT P6SM OVC025
     FM010400 28014G24KT P6SM OVC015=

USA.gov is the U.S. government's official web portal to all federal, state and local government web resources and services.